MOL Paramount — 3ECH9 — position and weather

sailwx.info

Track history (hours):
 
Tides and Currents Weather Stations Pressure Air Temp Water Temp Dewpoint Dewpoint Depression Visibility Wind Speed Wind Dir Waves Ship Positions

MOL Paramount

Last reported at 2014-Dec-20 06:32 UTC. Time now 2014-Dec-20 17:16 UTC.
Position N 22°28' E 113°52'.

Length 293 m; draft 10.5 m.

Type: Cargo ship. MMSI: 371519000.

Date/timePositionNaut miles runAvg speedWind from/ knotsBaromVisibWave heightAir tempDewpointWater temp
2014-Dec-20 06:32N 22°28' E 113°52'12 8.9
2014-Dec-20 05:09N 22°21' E 114°02'3 4.9
2014-Dec-20 04:33N 22°19' E 114°05'0 0.1
2014-Dec-20 03:33N 22°19' E 114°05'3 2.7
2014-Dec-20 02:30N 22°20' E 114°08'0 0.0
2014-Dec-20 01:24N 22°20' E 114°08'0 0.0
2014-Dec-19 23:15N 22°20' E 114°08'0 0.0
2014-Dec-19 22:21N 22°20' E 114°08'0 0.0
2014-Dec-19 21:15N 22°20' E 114°08'0 0.0
2014-Dec-19 20:27N 22°20' E 114°08'0 0.0
2014-Dec-19 19:33N 22°20' E 114°08'0 0.0
2014-Dec-19 18:33N 22°20' E 114°08'0 0.0
2014-Dec-19 17:12N 22°20' E 114°08'0 0.0
2014-Dec-19 16:33N 22°20' E 114°08'0 0.0
2014-Dec-19 14:21N 22°20' E 114°08'0 0.0
2014-Dec-19 13:33N 22°20' E 114°08'0 0.0
2014-Dec-19 12:21N 22°20' E 114°08'0 0.0
2014-Dec-19 11:31N 22°20' E 114°08'2 1.9
2014-Dec-19 10:34N 22°19' E 114°06'9 8.4
2014-Dec-19 09:26N 22°11' E 114°12'7 8.0
2014-Dec-19 08:33N 22°08' E 114°19'7 6.6
2014-Dec-19 07:31N 22°09' E 114°26'7 6.8
2014-Dec-19 06:31N 22°16' E 114°26'6 6.3
2014-Dec-19 05:32N 22°21' E 114°28'16 7.3
2014-Dec-19 03:22N 22°34' E 114°17'1 1.4
2014-Dec-19 02:24N 22°34' E 114°16'0 0.0
2014-Dec-19 01:18N 22°34' E 114°16'0 0.0
2014-Dec-19 00:18N 22°34' E 114°16'0 0.0
2014-Dec-18 23:30N 22°34' E 114°16'0 0.0
2014-Dec-18 22:30N 22°34' E 114°16'0 0.0
2014-Dec-18 20:30N 22°34' E 114°16'0 0.0
2014-Dec-18 19:30N 22°34' E 114°16'0 0.0
2014-Dec-18 18:30N 22°34' E 114°16'0 0.0
2014-Dec-18 17:30N 22°34' E 114°16'0 0.0
2014-Dec-18 16:30N 22°34' E 114°16'0 0.0
2014-Dec-18 15:33N 22°34' E 114°16'0 0.0
2014-Dec-18 14:33N 22°34' E 114°16'22 6.6
2014-Dec-18 11:14N 22°16' E 114°29'18 8.3
2014-Dec-18 09:07N 22°12' E 114°10'610.1
2014-Dec-18 08:33N 22°16' E 114°06'4 3.7
2014-Dec-18 07:32N 22°20' E 114°08'0 0.0
2014-Dec-18 06:32N 22°20' E 114°08'0 0.0
2014-Dec-18 05:32N 22°20' E 114°08'0 0.0
2014-Dec-18 04:29N 22°20' E 114°08'0 0.0
2014-Dec-18 03:32N 22°20' E 114°08'0 0.0
2014-Dec-18 02:20N 22°20' E 114°08'0 0.0
2014-Dec-18 01:32N 22°20' E 114°08'0 0.0
2014-Dec-18 00:17N 22°20' E 114°08'0 0.0
2014-Dec-17 23:32N 22°20' E 114°08'0 0.0
2014-Dec-17 22:32N 22°20' E 114°08'0 0.0
2014-Dec-17 21:26N 22°20' E 114°08'0 0.0
2014-Dec-17 20:32N 22°20' E 114°08'0 0.0
2014-Dec-17 19:29N 22°20' E 114°08'0 0.0
2014-Dec-17 18:32N 22°20' E 114°08'0 0.0
2014-Dec-17 17:32N 22°20' E 114°08'0 0.0
2014-Dec-17 16:33N 22°20' E 114°08'5 4.9
2014-Dec-17 15:33N 22°15' E 114°07'1111.1
2014-Dec-17 14:31N 22°09' E 114°18'1111.7
2014-Dec-17 13:33N 21°58' E 114°23'  
2014-Dec-14 11:32N 01°13' E 103°56'6 6.0
2014-Dec-14 10:33N 01°16' E 103°51'0 0.4
2014-Dec-14 09:33N 01°16' E 103°51'0 0.0
2014-Dec-14 08:27N 01°16' E 103°51'0 0.0
2014-Dec-14 07:30N 01°16' E 103°51'0 0.0
2014-Dec-14 06:30N 01°16' E 103°51'0 0.0
2014-Dec-14 05:30N 01°16' E 103°51'0 0.0
2014-Dec-14 04:33N 01°16' E 103°51'0 0.0
2014-Dec-14 03:30N 01°16' E 103°51'0 0.0
2014-Dec-14 02:33N 01°16' E 103°51'0 0.0
2014-Dec-14 01:33N 01°16' E 103°51'0 0.0
2014-Dec-14 00:03N 01°16' E 103°51'0 0.1
2014-Dec-13 23:33N 01°16' E 103°51'0 0.3
2014-Dec-13 22:09N 01°16' E 103°51'0 0.0
2014-Dec-13 21:21N 01°16' E 103°51'0 0.0
2014-Dec-13 20:03N 01°16' E 103°51'0 0.0
2014-Dec-13 19:33N 01°16' E 103°51'0 0.0
2014-Dec-13 18:24N 01°16' E 103°51'0 0.0
2014-Dec-13 17:18N 01°16' E 103°51'0 0.0
2014-Dec-13 16:06N 01°16' E 103°51'0 0.0
2014-Dec-13 15:21N 01°16' E 103°51'0 0.0
2014-Dec-13 14:18N 01°16' E 103°51'0 0.0
2014-Dec-13 13:18N 01°16' E 103°51'0 0.0
2014-Dec-13 12:24N 01°16' E 103°51'0 0.0
2014-Dec-13 11:21N 01°16' E 103°51'1 1.8
2014-Dec-13 10:33N 01°15' E 103°52'3 3.0
2014-Dec-13 09:34N 01°13' E 103°54'5 4.8
2014-Dec-13 08:33N 01°11' E 103°50'7 6.8
2014-Dec-13 07:33N 01°07' E 103°45'7 6.6
2014-Dec-13 06:32N 01°03' E 103°39'5611.1
2014-Dec-13 01:31N 01°34' E 102°53'1616.6
2014-Dec-13 00:33N 01°41' E 102°39'1716.7
2014-Dec-12 23:33N 01°49' E 102°24'  
Track history (hours):
 
Tides and Currents Weather Stations Pressure Air Temp Water Temp Dewpoint Dewpoint Depression Visibility Wind Speed Wind Dir Waves Ship Positions

MOL Paramount

Last reported at 2014-Dec-20 06:32 UTC. Time now 2014-Dec-20 17:16 UTC.
Position N 22°28' E 113°52'.

Length 293 m; draft 10.5 m.

Type: Cargo ship. MMSI: 371519000.

Date/timePositionNaut miles runAvg speedWind from/ knotsBaromVisibWave heightAir tempDewpointWater temp
2014-Dec-20 06:32N 22°28' E 113°52'12 8.9
2014-Dec-20 05:09N 22°21' E 114°02'3 4.9
2014-Dec-20 04:33N 22°19' E 114°05'0 0.1
2014-Dec-20 03:33N 22°19' E 114°05'3 2.7
2014-Dec-20 02:30N 22°20' E 114°08'0 0.0
2014-Dec-20 01:24N 22°20' E 114°08'0 0.0
2014-Dec-19 23:15N 22°20' E 114°08'0 0.0
2014-Dec-19 22:21N 22°20' E 114°08'0 0.0
2014-Dec-19 21:15N 22°20' E 114°08'0 0.0
2014-Dec-19 20:27N 22°20' E 114°08'0 0.0
2014-Dec-19 19:33N 22°20' E 114°08'0 0.0
2014-Dec-19 18:33N 22°20' E 114°08'0 0.0
2014-Dec-19 17:12N 22°20' E 114°08'0 0.0
2014-Dec-19 16:33N 22°20' E 114°08'0 0.0
2014-Dec-19 14:21N 22°20' E 114°08'0 0.0
2014-Dec-19 13:33N 22°20' E 114°08'0 0.0
2014-Dec-19 12:21N 22°20' E 114°08'0 0.0
2014-Dec-19 11:31N 22°20' E 114°08'2 1.9
2014-Dec-19 10:34N 22°19' E 114°06'9 8.4
2014-Dec-19 09:26N 22°11' E 114°12'7 8.0
2014-Dec-19 08:33N 22°08' E 114°19'7 6.6
2014-Dec-19 07:31N 22°09' E 114°26'7 6.8
2014-Dec-19 06:31N 22°16' E 114°26'6 6.3
2014-Dec-19 05:32N 22°21' E 114°28'16 7.3
2014-Dec-19 03:22N 22°34' E 114°17'1 1.4
2014-Dec-19 02:24N 22°34' E 114°16'0 0.0
2014-Dec-19 01:18N 22°34' E 114°16'0 0.0
2014-Dec-19 00:18N 22°34' E 114°16'0 0.0
2014-Dec-18 23:30N 22°34' E 114°16'0 0.0
2014-Dec-18 22:30N 22°34' E 114°16'0 0.0
2014-Dec-18 20:30N 22°34' E 114°16'0 0.0
2014-Dec-18 19:30N 22°34' E 114°16'0 0.0
2014-Dec-18 18:30N 22°34' E 114°16'0 0.0
2014-Dec-18 17:30N 22°34' E 114°16'0 0.0
2014-Dec-18 16:30N 22°34' E 114°16'0 0.0
2014-Dec-18 15:33N 22°34' E 114°16'0 0.0
2014-Dec-18 14:33N 22°34' E 114°16'22 6.6
2014-Dec-18 11:14N 22°16' E 114°29'18 8.3
2014-Dec-18 09:07N 22°12' E 114°10'610.1
2014-Dec-18 08:33N 22°16' E 114°06'4 3.7
2014-Dec-18 07:32N 22°20' E 114°08'0 0.0
2014-Dec-18 06:32N 22°20' E 114°08'0 0.0
2014-Dec-18 05:32N 22°20' E 114°08'0 0.0
2014-Dec-18 04:29N 22°20' E 114°08'0 0.0
2014-Dec-18 03:32N 22°20' E 114°08'0 0.0
2014-Dec-18 02:20N 22°20' E 114°08'0 0.0
2014-Dec-18 01:32N 22°20' E 114°08'0 0.0
2014-Dec-18 00:17N 22°20' E 114°08'0 0.0
2014-Dec-17 23:32N 22°20' E 114°08'0 0.0
2014-Dec-17 22:32N 22°20' E 114°08'0 0.0
2014-Dec-17 21:26N 22°20' E 114°08'0 0.0
2014-Dec-17 20:32N 22°20' E 114°08'0 0.0
2014-Dec-17 19:29N 22°20' E 114°08'0 0.0
2014-Dec-17 18:32N 22°20' E 114°08'0 0.0
2014-Dec-17 17:32N 22°20' E 114°08'0 0.0
2014-Dec-17 16:33N 22°20' E 114°08'5 4.9
2014-Dec-17 15:33N 22°15' E 114°07'1111.1
2014-Dec-17 14:31N 22°09' E 114°18'1111.7
2014-Dec-17 13:33N 21°58' E 114°23'  
2014-Dec-14 11:32N 01°13' E 103°56'6 6.0
2014-Dec-14 10:33N 01°16' E 103°51'0 0.4
2014-Dec-14 09:33N 01°16' E 103°51'0 0.0
2014-Dec-14 08:27N 01°16' E 103°51'0 0.0
2014-Dec-14 07:30N 01°16' E 103°51'0 0.0
2014-Dec-14 06:30N 01°16' E 103°51'0 0.0
2014-Dec-14 05:30N 01°16' E 103°51'0 0.0
2014-Dec-14 04:33N 01°16' E 103°51'0 0.0
2014-Dec-14 03:30N 01°16' E 103°51'0 0.0
2014-Dec-14 02:33N 01°16' E 103°51'0 0.0
2014-Dec-14 01:33N 01°16' E 103°51'0 0.0
2014-Dec-14 00:03N 01°16' E 103°51'0 0.1
2014-Dec-13 23:33N 01°16' E 103°51'0 0.3
2014-Dec-13 22:09N 01°16' E 103°51'0 0.0
2014-Dec-13 21:21N 01°16' E 103°51'0 0.0
2014-Dec-13 20:03N 01°16' E 103°51'0 0.0
2014-Dec-13 19:33N 01°16' E 103°51'0 0.0
2014-Dec-13 18:24N 01°16' E 103°51'0 0.0
2014-Dec-13 17:18N 01°16' E 103°51'0 0.0
2014-Dec-13 16:06N 01°16' E 103°51'0 0.0
2014-Dec-13 15:21N 01°16' E 103°51'0 0.0
2014-Dec-13 14:18N 01°16' E 103°51'0 0.0
2014-Dec-13 13:18N 01°16' E 103°51'0 0.0
2014-Dec-13 12:24N 01°16' E 103°51'0 0.0
2014-Dec-13 11:21N 01°16' E 103°51'1 1.8
2014-Dec-13 10:33N 01°15' E 103°52'3 3.0
2014-Dec-13 09:34N 01°13' E 103°54'5 4.8
2014-Dec-13 08:33N 01°11' E 103°50'7 6.8
2014-Dec-13 07:33N 01°07' E 103°45'7 6.6
2014-Dec-13 06:32N 01°03' E 103°39'5611.1
2014-Dec-13 01:31N 01°34' E 102°53'1616.6
2014-Dec-13 00:33N 01°41' E 102°39'1716.7
2014-Dec-12 23:33N 01°49' E 102°24'  

Dump ship's entire track history